sensor_id;sensor_type;location;lat;lon;timestamp;pressure;altitude;pressure_sealevel;temperature;humidity
29121;BME280;16191;49.548;8.658;2022-09-13T00:00:51;99956.69;;;16.17;100.00
29121;BME280;16191;49.548;8.658;2022-09-13T00:03:18;99955.72;;;16.05;100.00
29121;BME280;16191;49.548;8.658;2022-09-13T00:05:46;99950.25;;;16.08;100.00
29121;BME280;16191;49.548;8.658;2022-09-13T00:08:15;99952.47;;;16.01;100.00
29121;BME280;16191;49.548;8.658;2022-09-13T00:10:43;99934.75;;;15.91;100.00
29121;BME280;16191;49.548;8.658;2022-09-13T00:13:12;99927.28;;;15.72;100.00
29121;BME280;16191;49.548;8.658;2022-09-13T00:15:44;99915.16;;;15.69;100.00
29121;BME280;16191;49.548;8.658;2022-09-13T00:18:12;99904.75;;;15.68;100.00
29121;BME280;16191;49.548;8.658;2022-09-13T00:20:39;99908.97;;;15.70;100.00
29121;BME280;16191;49.548;8.658;2022-09-13T00:23:06;99911.50;;;15.72;100.00
29121;BME280;16191;49.548;8.658;2022-09-13T00:25:33;99913.78;;;15.64;100.00
29121;BME280;16191;49.548;8.658;2022-09-13T00:28:00;99919.38;;;15.72;100.00
29121;BME280;16191;49.548;8.658;2022-09-13T00:30:27;99920.31;;;15.71;100.00
29121;BME280;16191;49.548;8.658;2022-09-13T00:32:53;99919.28;;;15.73;100.00
29121;BME280;16191;49.548;8.658;2022-09-13T00:35:20;99908.84;;;15.72;100.00
29121;BME280;16191;49.548;8.658;2022-09-13T00:37:47;99907.72;;;15.76;100.00
29121;BME280;16191;49.548;8.658;2022-09-13T00:40:14;99906.53;;;15.67;100.00
29121;BME280;16191;49.548;8.658;2022-09-13T00:42:41;99912.94;;;15.63;100.00
29121;BME280;16191;49.548;8.658;2022-09-13T00:47:40;99911.78;;;15.67;100.00
29121;BME280;16191;49.548;8.658;2022-09-13T00:50:20;99907.16;;;15.71;100.00
29121;BME280;16191;49.548;8.658;2022-09-13T00:52:57;99905.50;;;15.70;100.00
29121;BME280;16191;49.548;8.658;2022-09-13T00:55:29;99911.06;;;15.65;100.00
29121;BME280;16191;49.548;8.658;2022-09-13T00:58:04;99905.78;;;15.65;100.00
29121;BME280;16191;49.548;8.658;2022-09-13T01:00:54;99908.22;;;15.56;100.00
29121;BME280;16191;49.548;8.658;2022-09-13T01:03:42;99901.22;;;15.55;100.00
29121;BME280;16191;49.548;8.658;2022-09-13T01:06:33;99906.09;;;15.61;100.00
29121;BME280;16191;49.548;8.658;2022-09-13T01:09:21;99906.22;;;15.32;100.00
29121;BME280;16191;49.548;8.658;2022-09-13T01:15:21;99921.91;;;15.34;100.00
29121;BME280;16191;49.548;8.658;2022-09-13T01:17:49;99906.53;;;15.40;100.00
29121;BME280;16191;49.548;8.658;2022-09-13T01:20:18;99891.59;;;15.41;100.00
29121;BME280;16191;49.548;8.658;2022-09-13T01:31:06;99904.38;;;15.20;100.00
29121;BME280;16191;49.548;8.658;2022-09-13T01:33:46;99908.31;;;15.27;100.00
29121;BME280;16191;49.548;8.658;2022-09-13T01:36:30;99899.47;;;15.28;100.00
29121;BME280;16191;49.548;8.658;2022-09-13T01:39:04;99900.41;;;15.27;100.00
29121;BME280;16191;49.548;8.658;2022-09-13T01:41:53;99907.38;;;15.28;100.00
29121;BME280;16191;49.548;8.658;2022-09-13T01:47:31;99905.94;;;15.10;100.00
29121;BME280;16191;49.548;8.658;2022-09-13T01:52:53;99899.53;;;15.14;100.00
29121;BME280;16191;49.548;8.658;2022-09-13T01:58:08;99908.59;;;14.96;100.00
29121;BME280;16191;49.548;8.658;2022-09-13T02:00:47;99904.16;;;15.11;100.00
29121;BME280;16191;49.548;8.658;2022-09-13T02:03:25;99904.34;;;15.07;100.00
29121;BME280;16191;49.548;8.658;2022-09-13T02:06:04;99897.59;;;15.03;100.00
29121;BME280;16191;49.548;8.658;2022-09-13T02:08:54;99894.28;;;14.87;100.00
29121;BME280;16191;49.548;8.658;2022-09-13T02:11:22;99899.03;;;14.95;100.00
29121;BME280;16191;49.548;8.658;2022-09-13T02:13:54;99903.25;;;14.97;100.00
29121;BME280;16191;49.548;8.658;2022-09-13T02:16:29;99903.44;;;14.94;100.00
29121;BME280;16191;49.548;8.658;2022-09-13T02:19:03;99898.50;;;14.90;100.00
29121;BME280;16191;49.548;8.658;2022-09-13T02:21:36;99900.47;;;14.86;100.00
29121;BME280;16191;49.548;8.658;2022-09-13T02:24:09;99903.19;;;14.85;100.00
29121;BME280;16191;49.548;8.658;2022-09-13T02:26:38;99920.09;;;14.81;100.00
29121;BME280;16191;49.548;8.658;2022-09-13T02:29:10;99930.50;;;14.82;100.00
29121;BME280;16191;49.548;8.658;2022-09-13T02:31:44;99937.63;;;14.80;100.00
29121;BME280;16191;49.548;8.658;2022-09-13T02:34:21;99948.22;;;14.79;100.00
29121;BME280;16191;49.548;8.658;2022-09-13T02:36:52;99950.41;;;14.72;100.00
29121;BME280;16191;49.548;8.658;2022-09-13T02:39:24;99945.53;;;14.66;100.00
29121;BME280;16191;49.548;8.658;2022-09-13T02:42:03;99945.53;;;14.66;100.00
29121;BME280;16191;49.548;8.658;2022-09-13T02:44:42;99941.50;;;14.60;100.00
29121;BME280;16191;49.548;8.658;2022-09-13T02:47:32;99945.81;;;14.61;100.00
29121;BME280;16191;49.548;8.658;2022-09-13T02:50:09;99956.50;;;14.58;100.00
29121;BME280;16191;49.548;8.658;2022-09-13T02:55:52;99949.94;;;14.51;100.00
29121;BME280;16191;49.548;8.658;2022-09-13T02:58:25;99933.66;;;14.46;100.00
29121;BME280;16191;49.548;8.658;2022-09-13T03:00:56;99935.44;;;14.46;100.00
29121;BME280;16191;49.548;8.658;2022-09-13T03:03:23;99941.63;;;14.45;100.00
29121;BME280;16191;49.548;8.658;2022-09-13T03:05:49;99944.44;;;14.42;100.00
29121;BME280;16191;49.548;8.658;2022-09-13T03:08:17;99933.16;;;14.39;100.00
29121;BME280;16191;49.548;8.658;2022-09-13T03:11:01;99925.72;;;14.32;100.00
29121;BME280;16191;49.548;8.658;2022-09-13T03:16:42;99930.81;;;14.21;100.00
29121;BME280;16191;49.548;8.658;2022-09-13T03:19:27;99928.84;;;14.24;100.00
29121;BME280;16191;49.548;8.658;2022-09-13T03:24:51;99925.66;;;14.19;100.00
29121;BME280;16191;49.548;8.658;2022-09-13T03:27:35;99908.59;;;14.26;100.00
29121;BME280;16191;49.548;8.658;2022-09-13T03:30:13;99907.25;;;14.33;100.00
29121;BME280;16191;49.548;8.658;2022-09-13T03:40:44;99886.66;;;14.27;100.00
29121;BME280;16191;49.548;8.658;2022-09-13T03:43:16;99873.72;;;14.24;100.00
29121;BME280;16191;49.548;8.658;2022-09-13T03:45:49;99872.88;;;14.24;100.00
29121;BME280;16191;49.548;8.658;2022-09-13T03:48:17;99872.59;;;14.28;100.00
29121;BME280;16191;49.548;8.658;2022-09-13T03:50:46;99869.59;;;14.20;100.00
29121;BME280;16191;49.548;8.658;2022-09-13T03:53:18;99872.78;;;14.25;100.00
29121;BME280;16191;49.548;8.658;2022-09-13T03:55:46;99873.53;;;14.27;100.00
29121;BME280;16191;49.548;8.658;2022-09-13T03:58:18;99885.16;;;14.37;100.00
29121;BME280;16191;49.548;8.658;2022-09-13T04:00:46;99884.66;;;14.31;100.00
29121;BME280;16191;49.548;8.658;2022-09-13T04:03:13;99887.00;;;14.35;100.00
29121;BME280;16191;49.548;8.658;2022-09-13T04:05:40;99888.13;;;14.31;100.00
29121;BME280;16191;49.548;8.658;2022-09-13T04:08:06;99883.53;;;14.35;100.00
29121;BME280;16191;49.548;8.658;2022-09-13T04:10:35;99885.91;;;14.39;100.00
29121;BME280;16191;49.548;8.658;2022-09-13T04:13:03;99886.06;;;14.36;100.00
29121;BME280;16191;49.548;8.658;2022-09-13T04:15:30;99889.63;;;14.35;100.00
29121;BME280;16191;49.548;8.658;2022-09-13T04:17:57;99898.03;;;14.42;100.00
29121;BME280;16191;49.548;8.658;2022-09-13T04:20:24;99897.94;;;14.44;100.00
29121;BME280;16191;49.548;8.658;2022-09-13T04:22:52;99899.00;;;14.39;100.00
29121;BME280;16191;49.548;8.658;2022-09-13T04:25:20;99908.06;;;14.50;100.00
29121;BME280;16191;49.548;8.658;2022-09-13T04:27:52;99901.41;;;14.44;100.00
29121;BME280;16191;49.548;8.658;2022-09-13T04:30:18;99896.16;;;14.44;100.00
29121;BME280;16191;49.548;8.658;2022-09-13T04:32:45;99885.56;;;14.46;100.00
29121;BME280;16191;49.548;8.658;2022-09-13T04:35:12;99882.00;;;14.47;100.00
29121;BME280;16191;49.548;8.658;2022-09-13T04:37:38;99880.31;;;14.46;100.00
29121;BME280;16191;49.548;8.658;2022-09-13T04:40:05;99882.66;;;14.50;100.00
29121;BME280;16191;49.548;8.658;2022-09-13T04:42:33;99890.31;;;14.53;100.00
29121;BME280;16191;49.548;8.658;2022-09-13T04:45:01;99888.84;;;14.49;100.00
29121;BME280;16191;49.548;8.658;2022-09-13T04:47:28;99890.72;;;14.47;100.00
29121;BME280;16191;49.548;8.658;2022-09-13T04:49:54;99897.75;;;14.47;100.00
29121;BME280;16191;49.548;8.658;2022-09-13T04:52:21;99900.19;;;14.50;100.00
29121;BME280;16191;49.548;8.658;2022-09-13T04:54:48;99899.34;;;14.49;100.00
29121;BME280;16191;49.548;8.658;2022-09-13T04:57:15;99895.78;;;14.50;100.00
29121;BME280;16191;49.548;8.658;2022-09-13T04:59:44;99883.69;;;14.48;100.00
29121;BME280;16191;49.548;8.658;2022-09-13T05:02:11;99890.53;;;14.50;100.00
29121;BME280;16191;49.548;8.658;2022-09-13T05:04:37;99893.69;;;14.55;100.00
29121;BME280;16191;49.548;8.658;2022-09-13T05:07:04;99898.94;;;14.55;100.00
29121;BME280;16191;49.548;8.658;2022-09-13T05:09:31;99910.28;;;14.56;100.00
29121;BME280;16191;49.548;8.658;2022-09-13T05:11:57;99902.41;;;14.56;100.00
29121;BME280;16191;49.548;8.658;2022-09-13T05:14:25;99903.34;;;14.55;100.00
29121;BME280;16191;49.548;8.658;2022-09-13T05:16:51;99904.19;;;14.55;100.00
29121;BME280;16191;49.548;8.658;2022-09-13T05:19:18;99909.34;;;14.57;100.00
29121;BME280;16191;49.548;8.658;2022-09-13T05:21:45;99924.16;;;14.58;100.00
29121;BME280;16191;49.548;8.658;2022-09-13T05:24:11;99927.06;;;14.53;100.00
29121;BME280;16191;49.548;8.658;2022-09-13T05:26:38;99921.63;;;14.56;100.00
29121;BME280;16191;49.548;8.658;2022-09-13T05:29:04;99929.13;;;14.62;100.00
29121;BME280;16191;49.548;8.658;2022-09-13T05:31:34;99918.06;;;14.57;100.00
29121;BME280;16191;49.548;8.658;2022-09-13T05:34:10;99925.75;;;14.60;100.00
29121;BME280;16191;49.548;8.658;2022-09-13T05:36:38;99927.16;;;14.66;100.00
29121;BME280;16191;49.548;8.658;2022-09-13T05:39:05;99930.44;;;14.69;100.00
29121;BME280;16191;49.548;8.658;2022-09-13T05:41:53;99945.97;;;14.72;100.00
29121;BME280;16191;49.548;8.658;2022-09-13T05:44:20;99948.41;;;14.75;100.00
29121;BME280;16191;49.548;8.658;2022-09-13T05:46:47;99939.50;;;14.78;100.00
29121;BME280;16191;49.548;8.658;2022-09-13T05:49:14;99935.09;;;14.79;100.00
29121;BME280;16191;49.548;8.658;2022-09-13T05:51:41;99936.78;;;14.80;100.00
29121;BME280;16191;49.548;8.658;2022-09-13T05:54:10;99933.22;;;14.81;100.00
29121;BME280;16191;49.548;8.658;2022-09-13T05:56:37;99925.81;;;14.87;100.00
29121;BME280;16191;49.548;8.658;2022-09-13T05:59:04;99925.06;;;14.85;100.00
29121;BME280;16191;49.548;8.658;2022-09-13T06:01:33;99927.03;;;14.82;100.00
29121;BME280;16191;49.548;8.658;2022-09-13T06:04:00;99933.78;;;14.86;100.00
29121;BME280;16191;49.548;8.658;2022-09-13T06:06:27;99941.19;;;14.93;100.00
29121;BME280;16191;49.548;8.658;2022-09-13T06:08:54;99932.03;;;14.99;100.00
29121;BME280;16191;49.548;8.658;2022-09-13T06:11:23;99926.69;;;15.00;100.00
29121;BME280;16191;49.548;8.658;2022-09-13T06:13:50;99922.84;;;15.06;100.00
29121;BME280;16191;49.548;8.658;2022-09-13T06:16:17;99918.13;;;15.11;100.00
29121;BME280;16191;49.548;8.658;2022-09-13T06:18:44;99911.41;;;15.20;100.00
29121;BME280;16191;49.548;8.658;2022-09-13T06:21:17;99919.13;;;15.23;100.00
29121;BME280;16191;49.548;8.658;2022-09-13T06:23:49;99923.78;;;15.32;100.00
29121;BME280;16191;49.548;8.658;2022-09-13T06:26:21;99923.78;;;15.32;100.00
29121;BME280;16191;49.548;8.658;2022-09-13T06:28:49;99919.06;;;15.37;100.00
29121;BME280;16191;49.548;8.658;2022-09-13T06:31:17;99910.38;;;15.49;100.00
29121;BME280;16191;49.548;8.658;2022-09-13T06:33:44;99918.34;;;15.48;100.00
29121;BME280;16191;49.548;8.658;2022-09-13T06:36:16;99912.53;;;15.42;100.00
29121;BME280;16191;49.548;8.658;2022-09-13T06:38:44;99913.00;;;15.49;100.00
29121;BME280;16191;49.548;8.658;2022-09-13T06:41:13;99903.97;;;15.53;100.00
29121;BME280;16191;49.548;8.658;2022-09-13T06:43:40;99920.88;;;15.49;100.00
29121;BME280;16191;49.548;8.658;2022-09-13T06:46:12;99910.56;;;15.46;100.00
29121;BME280;16191;49.548;8.658;2022-09-13T06:48:41;99908.72;;;15.61;100.00
29121;BME280;16191;49.548;8.658;2022-09-13T06:51:10;99904.94;;;15.65;100.00
29121;BME280;16191;49.548;8.658;2022-09-13T06:53:38;99913.06;;;15.74;100.00
29121;BME280;16191;49.548;8.658;2022-09-13T06:56:09;99912.13;;;15.75;100.00
29121;BME280;16191;49.548;8.658;2022-09-13T06:58:37;99929.16;;;15.70;100.00
29121;BME280;16191;49.548;8.658;2022-09-13T07:01:22;99936.31;;;15.81;100.00
29121;BME280;16191;49.548;8.658;2022-09-13T07:03:52;99938.53;;;15.87;100.00
29121;BME280;16191;49.548;8.658;2022-09-13T07:06:20;99938.78;;;15.96;100.00
29121;BME280;16191;49.548;8.658;2022-09-13T07:08:50;99928.66;;;16.03;100.00
29121;BME280;16191;49.548;8.658;2022-09-13T07:11:19;99931.72;;;16.09;100.00
29121;BME280;16191;49.548;8.658;2022-09-13T07:13:50;99930.25;;;16.18;100.00
29121;BME280;16191;49.548;8.658;2022-09-13T07:16:19;99933.63;;;16.20;100.00
29121;BME280;16191;49.548;8.658;2022-09-13T07:19:00;99941.44;;;16.22;100.00
29121;BME280;16191;49.548;8.658;2022-09-13T07:21:27;99937.41;;;16.29;100.00
29121;BME280;16191;49.548;8.658;2022-09-13T07:23:55;99935.41;;;16.32;100.00
29121;BME280;16191;49.548;8.658;2022-09-13T07:26:22;99935.63;;;16.42;100.00
29121;BME280;16191;49.548;8.658;2022-09-13T07:28:51;99936.94;;;16.48;100.00
29121;BME280;16191;49.548;8.658;2022-09-13T07:31:21;99944.44;;;16.54;100.00
29121;BME280;16191;49.548;8.658;2022-09-13T07:33:53;99950.78;;;16.64;100.00
29121;BME280;16191;49.548;8.658;2022-09-13T07:36:21;99953.81;;;16.70;100.00
29121;BME280;16191;49.548;8.658;2022-09-13T07:38:47;99958.34;;;16.68;100.00
29121;BME280;16191;49.548;8.658;2022-09-13T07:41:16;99953.06;;;16.81;100.00
29121;BME280;16191;49.548;8.658;2022-09-13T07:43:44;99958.63;;;16.89;100.00
29121;BME280;16191;49.548;8.658;2022-09-13T07:46:16;99959.44;;;16.90;100.00
29121;BME280;16191;49.548;8.658;2022-09-13T07:48:44;99965.75;;;17.00;100.00
29121;BME280;16191;49.548;8.658;2022-09-13T07:51:22;99959.66;;;16.99;100.00
29121;BME280;16191;49.548;8.658;2022-09-13T07:53:51;99953.84;;;17.07;100.00
29121;BME280;16191;49.548;8.658;2022-09-13T07:56:34;99939.59;;;17.09;100.00
29121;BME280;16191;49.548;8.658;2022-09-13T07:59:03;99937.34;;;17.16;100.00
29121;BME280;16191;49.548;8.658;2022-09-13T08:01:37;99925.72;;;17.19;100.00
29121;BME280;16191;49.548;8.658;2022-09-13T08:04:11;99921.72;;;17.13;100.00
29121;BME280;16191;49.548;8.658;2022-09-13T08:06:39;99909.28;;;17.15;100.00
29121;BME280;16191;49.548;8.658;2022-09-13T08:09:07;99912.63;;;17.06;100.00
29121;BME280;16191;49.548;8.658;2022-09-13T08:11:40;99914.56;;;17.15;100.00
29121;BME280;16191;49.548;8.658;2022-09-13T08:14:09;99917.63;;;17.33;100.00
29121;BME280;16191;49.548;8.658;2022-09-13T08:16:36;99931.53;;;17.35;100.00
29121;BME280;16191;49.548;8.658;2022-09-13T08:19:05;99930.38;;;17.39;100.00
29121;BME280;16191;49.548;8.658;2022-09-13T08:21:48;99921.81;;;17.59;100.00
29121;BME280;16191;49.548;8.658;2022-09-13T08:24:20;99924.91;;;17.77;100.00
29121;BME280;16191;49.548;8.658;2022-09-13T08:26:48;99912.34;;;17.92;100.00
29121;BME280;16191;49.548;8.658;2022-09-13T08:29:15;99911.78;;;18.10;100.00
29121;BME280;16191;49.548;8.658;2022-09-13T08:31:43;99904.69;;;18.22;100.00
29121;BME280;16191;49.548;8.658;2022-09-13T08:34:13;99897.97;;;18.29;100.00
29121;BME280;16191;49.548;8.658;2022-09-13T08:36:40;99898.34;;;18.36;100.00
29121;BME280;16191;49.548;8.658;2022-09-13T08:39:10;99888.25;;;18.41;100.00
29121;BME280;16191;49.548;8.658;2022-09-13T08:44:33;99874.34;;;18.61;100.00
29121;BME280;16191;49.548;8.658;2022-09-13T08:47:37;99875.03;;;18.74;99.39
29121;BME280;16191;49.548;8.658;2022-09-13T09:05:14;99922.00;;;18.82;100.00
29121;BME280;16191;49.548;8.658;2022-09-13T09:07:33;99923.06;;;18.91;100.00
29121;BME280;16191;49.548;8.658;2022-09-13T09:10:14;99918.44;;;19.15;100.00
29121;BME280;16191;49.548;8.658;2022-09-13T09:12:46;99912.59;;;19.32;100.00
29121;BME280;16191;49.548;8.658;2022-09-13T09:15:21;99900.00;;;19.57;99.25
29121;BME280;16191;49.548;8.658;2022-09-13T09:17:59;99895.66;;;19.97;96.63
29121;BME280;16191;49.548;8.658;2022-09-13T09:20:36;99909.81;;;20.07;96.73
29121;BME280;16191;49.548;8.658;2022-09-13T09:23:13;99910.34;;;20.32;94.98
29121;BME280;16191;49.548;8.658;2022-09-13T09:25:47;99908.06;;;20.48;92.80
29121;BME280;16191;49.548;8.658;2022-09-13T09:28:17;99905.50;;;20.67;89.91
29121;BME280;16191;49.548;8.658;2022-09-13T09:31:09;99897.84;;;20.74;90.26
29121;BME280;16191;49.548;8.658;2022-09-13T09:39:19;99904.69;;;20.86;88.21
29121;BME280;16191;49.548;8.658;2022-09-13T09:41:46;99907.47;;;20.84;89.81
29121;BME280;16191;49.548;8.658;2022-09-13T09:44:25;99918.00;;;21.05;86.58
29121;BME280;16191;49.548;8.658;2022-09-13T09:46:59;99924.41;;;21.03;86.41
29121;BME280;16191;49.548;8.658;2022-09-13T09:49:36;99929.31;;;21.07;85.96
29121;BME280;16191;49.548;8.658;2022-09-13T09:52:26;99931.69;;;21.10;87.65
29121;BME280;16191;49.548;8.658;2022-09-13T09:54:59;99942.56;;;21.07;86.83
29121;BME280;16191;49.548;8.658;2022-09-13T09:57:54;99930.03;;;21.19;88.18
29121;BME280;16191;49.548;8.658;2022-09-13T10:00:23;99927.28;;;21.40;87.15
29121;BME280;16191;49.548;8.658;2022-09-13T10:02:53;99926.69;;;21.17;87.94
29121;BME280;16191;49.548;8.658;2022-09-13T10:05:22;99923.81;;;21.39;87.51
29121;BME280;16191;49.548;8.658;2022-09-13T10:07:54;99918.03;;;21.25;88.32
29121;BME280;16191;49.548;8.658;2022-09-13T10:10:34;99907.44;;;21.53;87.12
29121;BME280;16191;49.548;8.658;2022-09-13T10:13:04;99906.56;;;21.72;86.68
29121;BME280;16191;49.548;8.658;2022-09-13T10:15:32;99901.53;;;21.69;85.90
29121;BME280;16191;49.548;8.658;2022-09-13T10:18:12;99895.69;;;21.75;85.93
29121;BME280;16191;49.548;8.658;2022-09-13T10:23:33;99872.97;;;21.90;83.83
29121;BME280;16191;49.548;8.658;2022-09-13T10:26:19;99878.03;;;22.03;83.73
29121;BME280;16191;49.548;8.658;2022-09-13T10:29:05;99888.03;;;22.29;82.67
29121;BME280;16191;49.548;8.658;2022-09-13T10:31:37;99897.75;;;22.01;82.41
29121;BME280;16191;49.548;8.658;2022-09-13T10:34:12;99906.22;;;22.23;82.10
29121;BME280;16191;49.548;8.658;2022-09-13T10:36:53;99910.00;;;22.21;80.33
29121;BME280;16191;49.548;8.658;2022-09-13T10:39:22;99926.66;;;22.13;81.52
29121;BME280;16191;49.548;8.658;2022-09-13T10:41:53;99922.22;;;22.41;81.24
29121;BME280;16191;49.548;8.658;2022-09-13T10:47:11;99925.16;;;22.48;81.29
29121;BME280;16191;49.548;8.658;2022-09-13T10:57:46;99929.91;;;22.44;77.22
29121;BME280;16191;49.548;8.658;2022-09-13T11:00:31;99922.44;;;22.57;76.76
29121;BME280;16191;49.548;8.658;2022-09-13T11:09:15;99912.22;;;22.53;74.44
29121;BME280;16191;49.548;8.658;2022-09-13T11:12:05;99914.81;;;22.72;73.95
29121;BME280;16191;49.548;8.658;2022-09-13T11:17:18;99930.53;;;22.29;73.42
29121;BME280;16191;49.548;8.658;2022-09-13T11:20:17;99923.34;;;22.39;73.23
29121;BME280;16191;49.548;8.658;2022-09-13T11:28:28;99907.59;;;22.55;74.10
29121;BME280;16191;49.548;8.658;2022-09-13T11:37:17;99906.72;;;22.37;75.14
29121;BME280;16191;49.548;8.658;2022-09-13T11:42:58;99896.50;;;22.32;75.71
29121;BME280;16191;49.548;8.658;2022-09-13T11:45:30;99891.06;;;22.34;76.00
29121;BME280;16191;49.548;8.658;2022-09-13T11:48:29;99884.38;;;22.30;77.93
29121;BME280;16191;49.548;8.658;2022-09-13T11:56:34;99882.16;;;22.25;87.00
29121;BME280;16191;49.548;8.658;2022-09-13T12:02:03;99855.28;;;22.28;91.93
29121;BME280;16191;49.548;8.658;2022-09-13T12:04:47;99857.75;;;22.39;92.02
29121;BME280;16191;49.548;8.658;2022-09-13T12:07:48;99849.34;;;22.34;91.75
29121;BME280;16191;49.548;8.658;2022-09-13T12:10:31;99845.72;;;22.35;92.29
29121;BME280;16191;49.548;8.658;2022-09-13T12:13:01;99830.59;;;22.36;97.19
29121;BME280;16191;49.548;8.658;2022-09-13T12:15:35;99829.78;;;22.35;96.81
29121;BME280;16191;49.548;8.658;2022-09-13T12:18:16;99839.00;;;22.31;95.96
29121;BME280;16191;49.548;8.658;2022-09-13T12:20:51;99843.13;;;22.26;97.95
29121;BME280;16191;49.548;8.658;2022-09-13T12:26:12;99833.63;;;22.23;100.00
29121;BME280;16191;49.548;8.658;2022-09-13T12:31:25;99818.06;;;22.28;100.00
29121;BME280;16191;49.548;8.658;2022-09-13T12:33:52;99812.06;;;22.26;100.00
29121;BME280;16191;49.548;8.658;2022-09-13T12:41:52;99805.16;;;22.33;100.00
29121;BME280;16191;49.548;8.658;2022-09-13T12:53:29;99787.75;;;22.21;100.00
29121;BME280;16191;49.548;8.658;2022-09-13T13:01:27;99787.19;;;22.17;100.00
29121;BME280;16191;49.548;8.658;2022-09-13T13:09:42;99773.88;;;22.27;98.71
29121;BME280;16191;49.548;8.658;2022-09-13T13:12:30;99776.84;;;22.42;96.97
29121;BME280;16191;49.548;8.658;2022-09-13T13:15:06;99779.47;;;22.51;97.88
29121;BME280;16191;49.548;8.658;2022-09-13T13:17:51;99779.22;;;22.63;96.07
29121;BME280;16191;49.548;8.658;2022-09-13T13:20:43;99785.94;;;22.67;93.64
29121;BME280;16191;49.548;8.658;2022-09-13T13:41:54;99774.41;;;23.89;79.22
29121;BME280;16191;49.548;8.658;2022-09-13T13:46:50;99768.31;;;23.97;75.40
29121;BME280;16191;49.548;8.658;2022-09-13T13:59:49;99757.66;;;24.05;79.36
29121;BME280;16191;49.548;8.658;2022-09-13T14:02:21;99758.84;;;24.02;79.54
29121;BME280;16191;49.548;8.658;2022-09-13T14:05:01;99755.81;;;24.05;84.28
29121;BME280;16191;49.548;8.658;2022-09-13T14:16:08;99732.44;;;24.25;82.98
29121;BME280;16191;49.548;8.658;2022-09-13T14:21:28;99735.81;;;24.35;81.46
29121;BME280;16191;49.548;8.658;2022-09-13T14:24:23;99728.81;;;24.42;83.68
29121;BME280;16191;49.548;8.658;2022-09-13T14:26:52;99718.66;;;24.38;84.87
29121;BME280;16191;49.548;8.658;2022-09-13T14:29:23;99719.47;;;24.38;84.06
29121;BME280;16191;49.548;8.658;2022-09-13T14:32:02;99711.63;;;24.37;83.86
29121;BME280;16191;49.548;8.658;2022-09-13T14:34:32;99717.94;;;24.27;83.69
29121;BME280;16191;49.548;8.658;2022-09-13T14:37:02;99709.78;;;24.29;83.94
29121;BME280;16191;49.548;8.658;2022-09-13T14:39:29;99711.09;;;24.25;84.43
29121;BME280;16191;49.548;8.658;2022-09-13T14:42:01;99707.13;;;24.29;85.52
29121;BME280;16191;49.548;8.658;2022-09-13T14:44:29;99703.13;;;24.33;85.45
29121;BME280;16191;49.548;8.658;2022-09-13T14:49:46;99698.78;;;24.32;85.13
29121;BME280;16191;49.548;8.658;2022-09-13T14:52:37;99699.94;;;24.30;84.52
29121;BME280;16191;49.548;8.658;2022-09-13T14:55:13;99699.22;;;24.11;86.27
29121;BME280;16191;49.548;8.658;2022-09-13T14:57:45;99698.41;;;24.19;85.73
29121;BME280;16191;49.548;8.658;2022-09-13T15:00:20;99691.75;;;24.23;86.31
29121;BME280;16191;49.548;8.658;2022-09-13T15:05:19;99676.06;;;24.12;85.88
29121;BME280;16191;49.548;8.658;2022-09-13T15:07:46;99673.56;;;24.10;86.56
29121;BME280;16191;49.548;8.658;2022-09-13T15:10:22;99661.91;;;24.11;85.84
29121;BME280;16191;49.548;8.658;2022-09-13T15:12:54;99663.53;;;23.96;87.02
29121;BME280;16191;49.548;8.658;2022-09-13T15:18:02;99649.38;;;24.04;85.96
29121;BME280;16191;49.548;8.658;2022-09-13T15:23:21;99646.06;;;24.02;85.57
29121;BME280;16191;49.548;8.658;2022-09-13T15:25:51;99643.00;;;23.88;86.22
29121;BME280;16191;49.548;8.658;2022-09-13T15:28:24;99640.84;;;23.84;87.19
29121;BME280;16191;49.548;8.658;2022-09-13T15:30:52;99640.81;;;23.76;87.06
29121;BME280;16191;49.548;8.658;2022-09-13T15:33:30;99639.84;;;23.85;86.56
29121;BME280;16191;49.548;8.658;2022-09-13T15:36:14;99629.50;;;23.82;86.79
29121;BME280;16191;49.548;8.658;2022-09-13T15:39:15;99638.16;;;23.76;86.05
29121;BME280;16191;49.548;8.658;2022-09-13T15:41:56;99634.84;;;23.90;85.38
29121;BME280;16191;49.548;8.658;2022-09-13T15:44:24;99631.41;;;23.98;84.99
29121;BME280;16191;49.548;8.658;2022-09-13T15:46:53;99628.69;;;23.89;86.53
29121;BME280;16191;49.548;8.658;2022-09-13T15:49:24;99625.84;;;23.83;87.48
29121;BME280;16191;49.548;8.658;2022-09-13T15:51:54;99603.22;;;23.87;87.72
29121;BME280;16191;49.548;8.658;2022-09-13T15:54:22;99604.88;;;23.88;86.18
29121;BME280;16191;49.548;8.658;2022-09-13T15:56:49;99601.06;;;23.90;86.33
29121;BME280;16191;49.548;8.658;2022-09-13T15:59:20;99607.44;;;24.14;85.08
29121;BME280;16191;49.548;8.658;2022-09-13T16:01:49;99598.78;;;24.20;84.00
29121;BME280;16191;49.548;8.658;2022-09-13T16:04:16;99602.81;;;24.32;84.16
29121;BME280;16191;49.548;8.658;2022-09-13T16:06:43;99601.28;;;24.30;83.87
29121;BME280;16191;49.548;8.658;2022-09-13T16:09:22;99590.75;;;24.12;85.86
29121;BME280;16191;49.548;8.658;2022-09-13T16:11:50;99588.75;;;24.06;86.18
29121;BME280;16191;49.548;8.658;2022-09-13T16:14:17;99591.75;;;23.95;87.47
29121;BME280;16191;49.548;8.658;2022-09-13T16:16:45;99595.81;;;23.65;89.61
29121;BME280;16191;49.548;8.658;2022-09-13T16:19:17;99598.53;;;23.73;90.33
29121;BME280;16191;49.548;8.658;2022-09-13T16:21:44;99602.97;;;23.56;92.09
29121;BME280;16191;49.548;8.658;2022-09-13T16:24:11;99607.78;;;23.52;93.39
29121;BME280;16191;49.548;8.658;2022-09-13T16:26:38;99610.38;;;23.44;94.79
29121;BME280;16191;49.548;8.658;2022-09-13T16:29:06;99608.91;;;23.50;94.87
29121;BME280;16191;49.548;8.658;2022-09-13T16:31:33;99619.75;;;23.22;96.21
29121;BME280;16191;49.548;8.658;2022-09-13T16:33:59;99611.41;;;23.17;96.80